sensor_id;sensor_type;location;lat;lon;timestamp;temperature;humidity
19952;DHT22;10137;49.406;19.484;2023-11-21T00:00:22;6.50;99.90
19952;DHT22;10137;49.406;19.484;2023-11-21T00:02:51;6.60;99.90
19952;DHT22;10137;49.406;19.484;2023-11-21T00:05:19;6.50;99.90
19952;DHT22;10137;49.406;19.484;2023-11-21T00:07:50;6.50;99.90
19952;DHT22;10137;49.406;19.484;2023-11-21T00:10:19;6.50;99.90
19952;DHT22;10137;49.406;19.484;2023-11-21T00:12:48;6.50;99.90
19952;DHT22;10137;49.406;19.484;2023-11-21T00:15:17;6.50;99.90
19952;DHT22;10137;49.406;19.484;2023-11-21T00:17:46;6.50;99.90
19952;DHT22;10137;49.406;19.484;2023-11-21T00:20:14;6.50;99.90
19952;DHT22;10137;49.406;19.484;2023-11-21T00:22:42;6.50;99.90
19952;DHT22;10137;49.406;19.484;2023-11-21T00:25:10;6.50;99.90
19952;DHT22;10137;49.406;19.484;2023-11-21T00:27:38;6.50;99.90
19952;DHT22;10137;49.406;19.484;2023-11-21T00:30:09;6.50;99.90
19952;DHT22;10137;49.406;19.484;2023-11-21T00:32:37;6.50;99.90
19952;DHT22;10137;49.406;19.484;2023-11-21T00:35:07;6.50;99.90
19952;DHT22;10137;49.406;19.484;2023-11-21T00:37:35;6.50;99.90
19952;DHT22;10137;49.406;19.484;2023-11-21T00:40:04;6.50;99.90
19952;DHT22;10137;49.406;19.484;2023-11-21T00:42:33;6.50;99.90
19952;DHT22;10137;49.406;19.484;2023-11-21T00:45:00;6.50;99.90
19952;DHT22;10137;49.406;19.484;2023-11-21T00:47:33;6.50;99.90
19952;DHT22;10137;49.406;19.484;2023-11-21T00:50:01;6.50;99.90
19952;DHT22;10137;49.406;19.484;2023-11-21T00:52:30;6.40;99.90
19952;DHT22;10137;49.406;19.484;2023-11-21T00:54:59;6.40;99.90
19952;DHT22;10137;49.406;19.484;2023-11-21T00:57:27;6.40;99.90
19952;DHT22;10137;49.406;19.484;2023-11-21T00:59:55;6.40;99.90
19952;DHT22;10137;49.406;19.484;2023-11-21T01:02:23;6.40;99.90
19952;DHT22;10137;49.406;19.484;2023-11-21T01:04:53;6.30;99.90
19952;DHT22;10137;49.406;19.484;2023-11-21T01:07:22;6.40;99.90
19952;DHT22;10137;49.406;19.484;2023-11-21T01:09:50;6.40;99.90
19952;DHT22;10137;49.406;19.484;2023-11-21T01:12:19;6.40;99.90
19952;DHT22;10137;49.406;19.484;2023-11-21T01:14:47;6.30;99.90
19952;DHT22;10137;49.406;19.484;2023-11-21T01:17:15;6.40;99.90
19952;DHT22;10137;49.406;19.484;2023-11-21T01:19:49;6.40;99.90
19952;DHT22;10137;49.406;19.484;2023-11-21T01:22:21;6.30;99.90
19952;DHT22;10137;49.406;19.484;2023-11-21T01:24:53;6.30;99.90
19952;DHT22;10137;49.406;19.484;2023-11-21T01:27:23;6.40;99.90
19952;DHT22;10137;49.406;19.484;2023-11-21T01:29:51;6.40;99.90
19952;DHT22;10137;49.406;19.484;2023-11-21T01:32:21;6.40;99.90
19952;DHT22;10137;49.406;19.484;2023-11-21T01:34:52;6.30;99.90
19952;DHT22;10137;49.406;19.484;2023-11-21T01:37:21;6.30;99.90
19952;DHT22;10137;49.406;19.484;2023-11-21T01:39:49;6.30;99.90
19952;DHT22;10137;49.406;19.484;2023-11-21T01:42:18;6.30;99.90
19952;DHT22;10137;49.406;19.484;2023-11-21T01:44:46;6.30;99.90
19952;DHT22;10137;49.406;19.484;2023-11-21T01:47:15;6.30;99.90
19952;DHT22;10137;49.406;19.484;2023-11-21T01:49:45;6.20;99.90
19952;DHT22;10137;49.406;19.484;2023-11-21T01:52:14;6.30;99.90
19952;DHT22;10137;49.406;19.484;2023-11-21T01:54:44;6.30;99.90
19952;DHT22;10137;49.406;19.484;2023-11-21T01:57:12;6.30;99.90
19952;DHT22;10137;49.406;19.484;2023-11-21T01:59:41;6.30;99.90
19952;DHT22;10137;49.406;19.484;2023-11-21T02:02:10;6.30;99.90
19952;DHT22;10137;49.406;19.484;2023-11-21T02:04:38;6.30;99.90
19952;DHT22;10137;49.406;19.484;2023-11-21T02:07:14;6.20;99.90
19952;DHT22;10137;49.406;19.484;2023-11-21T02:09:43;6.20;99.90
19952;DHT22;10137;49.406;19.484;2023-11-21T02:12:12;6.30;99.90
19952;DHT22;10137;49.406;19.484;2023-11-21T02:14:43;6.30;99.90
19952;DHT22;10137;49.406;19.484;2023-11-21T02:17:17;6.30;99.90
19952;DHT22;10137;49.406;19.484;2023-11-21T02:19:45;6.40;99.90
19952;DHT22;10137;49.406;19.484;2023-11-21T02:22:14;6.40;99.90
19952;DHT22;10137;49.406;19.484;2023-11-21T02:24:46;6.40;99.90
19952;DHT22;10137;49.406;19.484;2023-11-21T02:27:14;6.40;99.90
19952;DHT22;10137;49.406;19.484;2023-11-21T02:29:47;6.40;99.90
19952;DHT22;10137;49.406;19.484;2023-11-21T02:32:15;6.40;99.90
19952;DHT22;10137;49.406;19.484;2023-11-21T02:34:46;6.40;99.90
19952;DHT22;10137;49.406;19.484;2023-11-21T02:37:14;6.40;99.90
19952;DHT22;10137;49.406;19.484;2023-11-21T02:39:43;6.40;99.90
19952;DHT22;10137;49.406;19.484;2023-11-21T02:42:12;6.40;99.90
19952;DHT22;10137;49.406;19.484;2023-11-21T02:44:40;6.40;99.90
19952;DHT22;10137;49.406;19.484;2023-11-21T02:47:08;6.30;99.90
19952;DHT22;10137;49.406;19.484;2023-11-21T02:49:37;6.40;99.90
19952;DHT22;10137;49.406;19.484;2023-11-21T02:52:05;6.30;99.90
19952;DHT22;10137;49.406;19.484;2023-11-21T02:54:33;6.30;99.90
19952;DHT22;10137;49.406;19.484;2023-11-21T02:57:05;6.30;99.90
19952;DHT22;10137;49.406;19.484;2023-11-21T02:59:34;6.40;99.90
19952;DHT22;10137;49.406;19.484;2023-11-21T03:02:03;6.30;99.90
19952;DHT22;10137;49.406;19.484;2023-11-21T03:04:35;6.30;99.90
19952;DHT22;10137;49.406;19.484;2023-11-21T03:07:03;6.30;99.90
19952;DHT22;10137;49.406;19.484;2023-11-21T03:09:32;6.20;99.90
19952;DHT22;10137;49.406;19.484;2023-11-21T03:12:00;6.30;99.90
19952;DHT22;10137;49.406;19.484;2023-11-21T03:14:30;6.20;99.90
19952;DHT22;10137;49.406;19.484;2023-11-21T03:16:58;6.30;99.90
19952;DHT22;10137;49.406;19.484;2023-11-21T03:19:26;6.30;99.90
19952;DHT22;10137;49.406;19.484;2023-11-21T03:21:55;6.30;99.90
19952;DHT22;10137;49.406;19.484;2023-11-21T03:24:23;6.30;99.90
19952;DHT22;10137;49.406;19.484;2023-11-21T03:26:52;6.30;99.90
19952;DHT22;10137;49.406;19.484;2023-11-21T03:29:20;6.30;99.90
19952;DHT22;10137;49.406;19.484;2023-11-21T03:31:50;6.20;99.90
19952;DHT22;10137;49.406;19.484;2023-11-21T03:34:24;6.20;99.90
19952;DHT22;10137;49.406;19.484;2023-11-21T03:36:55;6.30;99.90
19952;DHT22;10137;49.406;19.484;2023-11-21T03:39:24;6.20;99.90
19952;DHT22;10137;49.406;19.484;2023-11-21T03:41:53;6.30;99.90
19952;DHT22;10137;49.406;19.484;2023-11-21T03:44:21;6.30;99.90
19952;DHT22;10137;49.406;19.484;2023-11-21T03:46:50;6.30;99.90
19952;DHT22;10137;49.406;19.484;2023-11-21T03:49:19;6.30;99.90
19952;DHT22;10137;49.406;19.484;2023-11-21T03:51:47;6.20;99.90
19952;DHT22;10137;49.406;19.484;2023-11-21T03:54:15;6.30;99.90
19952;DHT22;10137;49.406;19.484;2023-11-21T03:56:43;6.20;99.90
19952;DHT22;10137;49.406;19.484;2023-11-21T03:59:11;6.30;99.90
19952;DHT22;10137;49.406;19.484;2023-11-21T04:01:39;6.20;99.90
19952;DHT22;10137;49.406;19.484;2023-11-21T04:04:11;6.20;99.90
19952;DHT22;10137;49.406;19.484;2023-11-21T04:06:41;6.20;99.90
19952;DHT22;10137;49.406;19.484;2023-11-21T04:09:09;6.20;99.90
19952;DHT22;10137;49.406;19.484;2023-11-21T04:11:37;6.20;99.90
19952;DHT22;10137;49.406;19.484;2023-11-21T04:14:05;6.20;99.90
19952;DHT22;10137;49.406;19.484;2023-11-21T04:16:33;6.20;99.90
19952;DHT22;10137;49.406;19.484;2023-11-21T04:19:01;6.20;99.90
19952;DHT22;10137;49.406;19.484;2023-11-21T04:21:30;6.20;99.90
19952;DHT22;10137;49.406;19.484;2023-11-21T04:24:00;6.20;99.90
19952;DHT22;10137;49.406;19.484;2023-11-21T04:26:27;6.20;99.90
19952;DHT22;10137;49.406;19.484;2023-11-21T04:28:55;6.20;99.90
19952;DHT22;10137;49.406;19.484;2023-11-21T04:31:23;6.20;99.90
19952;DHT22;10137;49.406;19.484;2023-11-21T04:33:52;6.10;99.90
19952;DHT22;10137;49.406;19.484;2023-11-21T04:36:20;6.10;99.90
19952;DHT22;10137;49.406;19.484;2023-11-21T04:38:49;6.10;99.90
19952;DHT22;10137;49.406;19.484;2023-11-21T04:41:17;6.10;99.90
19952;DHT22;10137;49.406;19.484;2023-11-21T04:43:44;6.10;99.90
19952;DHT22;10137;49.406;19.484;2023-11-21T04:46:12;6.00;99.90
19952;DHT22;10137;49.406;19.484;2023-11-21T04:48:41;6.00;99.90
19952;DHT22;10137;49.406;19.484;2023-11-21T04:51:09;5.90;99.90
19952;DHT22;10137;49.406;19.484;2023-11-21T04:53:38;5.90;99.90
19952;DHT22;10137;49.406;19.484;2023-11-21T04:56:11;5.90;99.90
19952;DHT22;10137;49.406;19.484;2023-11-21T04:58:39;6.00;99.90
19952;DHT22;10137;49.406;19.484;2023-11-21T05:01:07;6.00;99.90
19952;DHT22;10137;49.406;19.484;2023-11-21T05:03:36;6.10;99.90
19952;DHT22;10137;49.406;19.484;2023-11-21T05:06:06;6.10;99.90
19952;DHT22;10137;49.406;19.484;2023-11-21T05:08:34;6.10;99.90
19952;DHT22;10137;49.406;19.484;2023-11-21T05:11:04;6.10;99.90
19952;DHT22;10137;49.406;19.484;2023-11-21T05:13:35;6.10;99.90
19952;DHT22;10137;49.406;19.484;2023-11-21T05:16:04;6.10;99.90
19952;DHT22;10137;49.406;19.484;2023-11-21T05:18:34;6.10;99.90
19952;DHT22;10137;49.406;19.484;2023-11-21T05:21:02;6.10;99.90
19952;DHT22;10137;49.406;19.484;2023-11-21T05:23:30;6.10;99.90
19952;DHT22;10137;49.406;19.484;2023-11-21T05:26:01;6.00;99.90
19952;DHT22;10137;49.406;19.484;2023-11-21T05:28:29;6.00;99.90
19952;DHT22;10137;49.406;19.484;2023-11-21T05:30:59;6.00;99.90
19952;DHT22;10137;49.406;19.484;2023-11-21T05:33:28;6.10;99.90
19952;DHT22;10137;49.406;19.484;2023-11-21T05:35:55;6.10;99.90
19952;DHT22;10137;49.406;19.484;2023-11-21T05:38:22;6.10;99.90
19952;DHT22;10137;49.406;19.484;2023-11-21T05:40:50;6.10;99.90
19952;DHT22;10137;49.406;19.484;2023-11-21T05:43:17;6.10;99.90
19952;DHT22;10137;49.406;19.484;2023-11-21T05:45:44;6.10;99.90
19952;DHT22;10137;49.406;19.484;2023-11-21T05:48:12;6.10;99.90
19952;DHT22;10137;49.406;19.484;2023-11-21T05:50:45;6.00;99.90
19952;DHT22;10137;49.406;19.484;2023-11-21T05:53:14;6.00;99.90
19952;DHT22;10137;49.406;19.484;2023-11-21T05:55:43;5.90;99.90
19952;DHT22;10137;49.406;19.484;2023-11-21T05:58:11;5.90;99.90
19952;DHT22;10137;49.406;19.484;2023-11-21T06:00:40;5.90;99.90
19952;DHT22;10137;49.406;19.484;2023-11-21T06:03:08;5.80;99.90
19952;DHT22;10137;49.406;19.484;2023-11-21T06:05:39;5.70;99.90
19952;DHT22;10137;49.406;19.484;2023-11-21T06:08:07;5.70;99.90
19952;DHT22;10137;49.406;19.484;2023-11-21T06:10:36;5.70;99.90
19952;DHT22;10137;49.406;19.484;2023-11-21T06:13:04;5.70;99.90
19952;DHT22;10137;49.406;19.484;2023-11-21T06:15:34;5.70;99.90
19952;DHT22;10137;49.406;19.484;2023-11-21T06:18:02;5.80;99.90
19952;DHT22;10137;49.406;19.484;2023-11-21T06:20:29;5.80;99.90
19952;DHT22;10137;49.406;19.484;2023-11-21T06:22:58;5.80;99.90
19952;DHT22;10137;49.406;19.484;2023-11-21T06:25:30;5.80;99.90
19952;DHT22;10137;49.406;19.484;2023-11-21T06:27:59;5.90;99.90
19952;DHT22;10137;49.406;19.484;2023-11-21T06:30:28;5.90;99.90
19952;DHT22;10137;49.406;19.484;2023-11-21T06:32:56;5.90;99.90
19952;DHT22;10137;49.406;19.484;2023-11-21T06:35:26;5.90;99.90
19952;DHT22;10137;49.406;19.484;2023-11-21T06:38:02;5.90;99.90
19952;DHT22;10137;49.406;19.484;2023-11-21T06:40:30;6.00;99.90
19952;DHT22;10137;49.406;19.484;2023-11-21T06:43:00;5.90;99.90
19952;DHT22;10137;49.406;19.484;2023-11-21T06:45:28;5.90;99.90
19952;DHT22;10137;49.406;19.484;2023-11-21T06:47:55;5.90;99.90
19952;DHT22;10137;49.406;19.484;2023-11-21T06:50:24;5.90;99.90
19952;DHT22;10137;49.406;19.484;2023-11-21T06:52:54;6.00;99.90
19952;DHT22;10137;49.406;19.484;2023-11-21T06:55:24;6.00;99.90
19952;DHT22;10137;49.406;19.484;2023-11-21T06:57:52;6.00;99.90
19952;DHT22;10137;49.406;19.484;2023-11-21T07:00:25;6.00;99.90
19952;DHT22;10137;49.406;19.484;2023-11-21T07:02:55;6.10;99.90
19952;DHT22;10137;49.406;19.484;2023-11-21T07:05:23;6.10;99.90
19952;DHT22;10137;49.406;19.484;2023-11-21T07:07:54;6.10;99.90
19952;DHT22;10137;49.406;19.484;2023-11-21T07:10:36;6.10;99.90
19952;DHT22;10137;49.406;19.484;2023-11-21T07:13:05;6.10;99.90
19952;DHT22;10137;49.406;19.484;2023-11-21T07:15:33;6.10;99.90
19952;DHT22;10137;49.406;19.484;2023-11-21T07:18:02;6.10;99.90
19952;DHT22;10137;49.406;19.484;2023-11-21T07:20:30;6.20;99.90
19952;DHT22;10137;49.406;19.484;2023-11-21T07:22:58;6.20;99.90
19952;DHT22;10137;49.406;19.484;2023-11-21T07:25:36;6.20;99.90
19952;DHT22;10137;49.406;19.484;2023-11-21T07:28:04;6.30;99.90
19952;DHT22;10137;49.406;19.484;2023-11-21T07:30:33;6.30;99.90
19952;DHT22;10137;49.406;19.484;2023-11-21T07:33:01;6.30;99.90
19952;DHT22;10137;49.406;19.484;2023-11-21T07:35:29;6.30;99.90
19952;DHT22;10137;49.406;19.484;2023-11-21T07:37:58;6.30;99.90
19952;DHT22;10137;49.406;19.484;2023-11-21T07:40:27;6.30;99.90
19952;DHT22;10137;49.406;19.484;2023-11-21T07:43:00;6.30;99.90
19952;DHT22;10137;49.406;19.484;2023-11-21T07:45:28;6.40;99.90
19952;DHT22;10137;49.406;19.484;2023-11-21T07:47:57;6.40;99.90
19952;DHT22;10137;49.406;19.484;2023-11-21T07:50:27;6.50;99.90
19952;DHT22;10137;49.406;19.484;2023-11-21T07:52:55;6.50;99.90
19952;DHT22;10137;49.406;19.484;2023-11-21T07:55:24;6.50;99.90
19952;DHT22;10137;49.406;19.484;2023-11-21T07:57:54;6.40;99.90
19952;DHT22;10137;49.406;19.484;2023-11-21T08:00:24;6.40;99.90
19952;DHT22;10137;49.406;19.484;2023-11-21T08:02:56;6.40;99.90
19952;DHT22;10137;49.406;19.484;2023-11-21T08:05:28;6.40;99.90
19952;DHT22;10137;49.406;19.484;2023-11-21T08:07:57;6.50;99.90
19952;DHT22;10137;49.406;19.484;2023-11-21T08:10:26;6.60;99.90
19952;DHT22;10137;49.406;19.484;2023-11-21T08:12:53;6.60;99.90
19952;DHT22;10137;49.406;19.484;2023-11-21T08:15:24;6.70;99.90
19952;DHT22;10137;49.406;19.484;2023-11-21T08:17:56;6.80;99.90
19952;DHT22;10137;49.406;19.484;2023-11-21T08:20:24;6.90;99.90
19952;DHT22;10137;49.406;19.484;2023-11-21T08:22:52;7.00;99.90
19952;DHT22;10137;49.406;19.484;2023-11-21T08:25:23;7.00;99.90
19952;DHT22;10137;49.406;19.484;2023-11-21T08:27:53;7.10;99.90
19952;DHT22;10137;49.406;19.484;2023-11-21T08:30:29;7.10;99.90
19952;DHT22;10137;49.406;19.484;2023-11-21T08:32:58;7.20;99.90
19952;DHT22;10137;49.406;19.484;2023-11-21T08:35:27;7.40;99.90
19952;DHT22;10137;49.406;19.484;2023-11-21T08:37:58;7.90;99.90
19952;DHT22;10137;49.406;19.484;2023-11-21T08:40:25;8.60;99.90
19952;DHT22;10137;49.406;19.484;2023-11-21T08:42:57;9.40;99.90
19952;DHT22;10137;49.406;19.484;2023-11-21T08:45:27;10.00;99.90
19952;DHT22;10137;49.406;19.484;2023-11-21T08:47:55;10.50;99.90
19952;DHT22;10137;49.406;19.484;2023-11-21T08:50:23;10.90;99.90
19952;DHT22;10137;49.406;19.484;2023-11-21T08:52:55;11.20;99.90
19952;DHT22;10137;49.406;19.484;2023-11-21T08:55:24;11.20;99.90
19952;DHT22;10137;49.406;19.484;2023-11-21T08:57:55;11.00;99.90
19952;DHT22;10137;49.406;19.484;2023-11-21T09:00:27;10.60;99.90
19952;DHT22;10137;49.406;19.484;2023-11-21T09:02:58;10.40;99.90
19952;DHT22;10137;49.406;19.484;2023-11-21T09:05:26;10.30;99.90
19952;DHT22;10137;49.406;19.484;2023-11-21T09:07:57;10.00;99.90
19952;DHT22;10137;49.406;19.484;2023-11-21T09:10:24;9.60;99.90
19952;DHT22;10137;49.406;19.484;2023-11-21T09:12:52;9.50;99.90
19952;DHT22;10137;49.406;19.484;2023-11-21T09:15:19;9.30;99.90
19952;DHT22;10137;49.406;19.484;2023-11-21T09:17:49;9.20;99.90
19952;DHT22;10137;49.406;19.484;2023-11-21T09:20:17;9.00;99.90
19952;DHT22;10137;49.406;19.484;2023-11-21T09:22:45;8.80;99.90
19952;DHT22;10137;49.406;19.484;2023-11-21T09:25:14;8.80;99.90
19952;DHT22;10137;49.406;19.484;2023-11-21T09:27:44;8.70;99.90
19952;DHT22;10137;49.406;19.484;2023-11-21T09:30:14;8.70;99.90
19952;DHT22;10137;49.406;19.484;2023-11-21T09:32:43;8.60;99.90
19952;DHT22;10137;49.406;19.484;2023-11-21T09:35:18;8.50;99.90
19952;DHT22;10137;49.406;19.484;2023-11-21T09:37:46;8.40;99.90
19952;DHT22;10137;49.406;19.484;2023-11-21T09:40:15;8.40;99.90
19952;DHT22;10137;49.406;19.484;2023-11-21T09:42:53;8.30;99.90
19952;DHT22;10137;49.406;19.484;2023-11-21T09:45:25;8.30;99.90
19952;DHT22;10137;49.406;19.484;2023-11-21T09:48:00;8.20;99.90
19952;DHT22;10137;49.406;19.484;2023-11-21T09:50:37;8.20;99.90
19952;DHT22;10137;49.406;19.484;2023-11-21T09:53:12;8.20;99.90
19952;DHT22;10137;49.406;19.484;2023-11-21T09:55:46;8.20;99.90
19952;DHT22;10137;49.406;19.484;2023-11-21T09:58:27;8.20;99.90
19952;DHT22;10137;49.406;19.484;2023-11-21T10:00:58;8.30;99.90
19952;DHT22;10137;49.406;19.484;2023-11-21T10:03:27;8.30;99.90
19952;DHT22;10137;49.406;19.484;2023-11-21T10:05:58;8.30;99.90
19952;DHT22;10137;49.406;19.484;2023-11-21T10:08:30;8.30;99.90
19952;DHT22;10137;49.406;19.484;2023-11-21T10:10:59;8.30;99.90
19952;DHT22;10137;49.406;19.484;2023-11-21T10:13:26;8.40;99.90
19952;DHT22;10137;49.406;19.484;2023-11-21T10:16:02;8.40;99.90
19952;DHT22;10137;49.406;19.484;2023-11-21T10:18:33;8.50;99.90
19952;DHT22;10137;49.406;19.484;2023-11-21T10:21:03;8.60;99.90
19952;DHT22;10137;49.406;19.484;2023-11-21T10:23:32;8.90;99.90
19952;DHT22;10137;49.406;19.484;2023-11-21T10:25:59;9.10;99.90
19952;DHT22;10137;49.406;19.484;2023-11-21T10:28:28;9.20;99.90
19952;DHT22;10137;49.406;19.484;2023-11-21T10:30:56;9.20;99.90
19952;DHT22;10137;49.406;19.484;2023-11-21T10:33:28;9.20;99.90
19952;DHT22;10137;49.406;19.484;2023-11-21T10:35:59;9.10;99.90
19952;DHT22;10137;49.406;19.484;2023-11-21T10:38:33;8.90;99.90
19952;DHT22;10137;49.406;19.484;2023-11-21T10:41:11;8.90;99.90
19952;DHT22;10137;49.406;19.484;2023-11-21T10:43:43;8.80;99.90
19952;DHT22;10137;49.406;19.484;2023-11-21T10:46:13;8.70;99.90
19952;DHT22;10137;49.406;19.484;2023-11-21T10:48:43;8.60;99.90
19952;DHT22;10137;49.406;19.484;2023-11-21T10:51:12;8.60;99.90
19952;DHT22;10137;49.406;19.484;2023-11-21T10:53:42;8.50;99.90
19952;DHT22;10137;49.406;19.484;2023-11-21T10:56:14;8.50;99.90
19952;DHT22;10137;49.406;19.484;2023-11-21T10:58:45;8.50;99.90
19952;DHT22;10137;49.406;19.484;2023-11-21T11:01:16;8.30;99.90
19952;DHT22;10137;49.406;19.484;2023-11-21T11:03:44;8.40;99.90
19952;DHT22;10137;49.406;19.484;2023-11-21T11:06:14;8.30;99.90
19952;DHT22;10137;49.406;19.484;2023-11-21T11:08:44;8.30;99.90
19952;DHT22;10137;49.406;19.484;2023-11-21T11:11:12;8.20;99.90
19952;DHT22;10137;49.406;19.484;2023-11-21T11:13:46;8.30;99.90
19952;DHT22;10137;49.406;19.484;2023-11-21T11:16:15;8.20;99.90
19952;DHT22;10137;49.406;19.484;2023-11-21T11:18:45;8.20;99.90
19952;DHT22;10137;49.406;19.484;2023-11-21T11:21:31;8.20;99.90
19952;DHT22;10137;49.406;19.484;2023-11-21T11:24:32;8.20;99.90
19952;DHT22;10137;49.406;19.484;2023-11-21T11:27:19;8.20;99.90
19952;DHT22;10137;49.406;19.484;2023-11-21T11:30:04;8.30;99.90
19952;DHT22;10137;49.406;19.484;2023-11-21T11:32:43;8.20;99.90
19952;DHT22;10137;49.406;19.484;2023-11-21T11:35:22;8.20;99.90
19952;DHT22;10137;49.406;19.484;2023-11-21T11:37:54;8.20;99.90
19952;DHT22;10137;49.406;19.484;2023-11-21T11:40:45;8.10;99.90
19952;DHT22;10137;49.406;19.484;2023-11-21T11:43:12;8.20;99.90
19952;DHT22;10137;49.406;19.484;2023-11-21T11:45:50;8.20;99.90
19952;DHT22;10137;49.406;19.484;2023-11-21T11:48:22;8.10;99.90
19952;DHT22;10137;49.406;19.484;2023-11-21T11:51:04;8.10;99.90
19952;DHT22;10137;49.406;19.484;2023-11-21T11:53:36;8.20;99.90
19952;DHT22;10137;49.406;19.484;2023-11-21T11:56:28;8.20;99.90
19952;DHT22;10137;49.406;19.484;2023-11-21T11:58:59;8.10;99.90
19952;DHT22;10137;49.406;19.484;2023-11-21T12:01:32;8.10;99.90
19952;DHT22;10137;49.406;19.484;2023-11-21T12:04:23;8.10;99.90
19952;DHT22;10137;49.406;19.484;2023-11-21T12:07:02;8.10;99.90
19952;DHT22;10137;49.406;19.484;2023-11-21T12:09:31;8.10;99.90
19952;DHT22;10137;49.406;19.484;2023-11-21T12:12:03;8.10;99.90
19952;DHT22;10137;49.406;19.484;2023-11-21T12:14:33;8.00;99.90
19952;DHT22;10137;49.406;19.484;2023-11-21T12:17:10;8.00;99.90
19952;DHT22;10137;49.406;19.484;2023-11-21T12:19:39;8.00;99.90
19952;DHT22;10137;49.406;19.484;2023-11-21T12:22:10;8.00;99.90
19952;DHT22;10137;49.406;19.484;2023-11-21T12:24:41;8.00;99.90
19952;DHT22;10137;49.406;19.484;2023-11-21T12:27:14;8.00;99.90
19952;DHT22;10137;49.406;19.484;2023-11-21T12:29:46;8.00;99.90
19952;DHT22;10137;49.406;19.484;2023-11-21T12:32:15;8.00;99.90
19952;DHT22;10137;49.406;19.484;2023-11-21T12:34:45;7.90;99.90
19952;DHT22;10137;49.406;19.484;2023-11-21T12:37:14;7.90;99.90
19952;DHT22;10137;49.406;19.484;2023-11-21T12:39:44;8.00;99.90
19952;DHT22;10137;49.406;19.484;2023-11-21T12:42:18;8.00;99.90
19952;DHT22;10137;49.406;19.484;2023-11-21T12:44:47;8.10;99.90
19952;DHT22;10137;49.406;19.484;2023-11-21T12:47:17;8.10;99.90
19952;DHT22;10137;49.406;19.484;2023-11-21T12:49:46;8.10;99.90
19952;DHT22;10137;49.406;19.484;2023-11-21T12:52:15;8.10;99.90
19952;DHT22;10137;49.406;19.484;2023-11-21T12:54:45;8.10;99.90
19952;DHT22;10137;49.406;19.484;2023-11-21T12:57:18;8.00;99.90
19952;DHT22;10137;49.406;19.484;2023-11-21T12:59:49;7.90;99.90
19952;DHT22;10137;49.406;19.484;2023-11-21T13:02:21;7.90;99.90
19952;DHT22;10137;49.406;19.484;2023-11-21T13:04:52;7.80;99.90
19952;DHT22;10137;49.406;19.484;2023-11-21T13:07:21;7.80;99.90
19952;DHT22;10137;49.406;19.484;2023-11-21T13:09:52;7.80;99.90
19952;DHT22;10137;49.406;19.484;2023-11-21T13:12:28;7.60;99.90
19952;DHT22;10137;49.406;19.484;2023-11-21T13:14:57;7.60;99.90
19952;DHT22;10137;49.406;19.484;2023-11-21T13:17:33;7.60;99.90
19952;DHT22;10137;49.406;19.484;2023-11-21T13:20:03;7.70;99.90
19952;DHT22;10137;49.406;19.484;2023-11-21T13:22:33;7.70;99.90
19952;DHT22;10137;49.406;19.484;2023-11-21T13:25:03;7.70;99.90
19952;DHT22;10137;49.406;19.484;2023-11-21T13:27:36;7.60;99.90
19952;DHT22;10137;49.406;19.484;2023-11-21T13:30:10;7.60;99.90
19952;DHT22;10137;49.406;19.484;2023-11-21T13:32:41;7.60;99.90
19952;DHT22;10137;49.406;19.484;2023-11-21T13:35:17;7.70;99.90
19952;DHT22;10137;49.406;19.484;2023-11-21T13:37:52;7.60;99.90
19952;DHT22;10137;49.406;19.484;2023-11-21T13:40:22;7.60;99.90
19952;DHT22;10137;49.406;19.484;2023-11-21T13:42:55;7.70;99.90
19952;DHT22;10137;49.406;19.484;2023-11-21T13:45:26;7.60;99.90
19952;DHT22;10137;49.406;19.484;2023-11-21T13:47:55;7.60;99.90
19952;DHT22;10137;49.406;19.484;2023-11-21T13:50:26;7.60;99.90
19952;DHT22;10137;49.406;19.484;2023-11-21T13:52:59;7.60;99.90
19952;DHT22;10137;49.406;19.484;2023-11-21T13:55:30;7.60;99.90
19952;DHT22;10137;49.406;19.484;2023-11-21T13:58:04;7.70;99.90
19952;DHT22;10137;49.406;19.484;2023-11-21T14:00:39;7.60;99.90
19952;DHT22;10137;49.406;19.484;2023-11-21T14:03:12;7.60;99.90
19952;DHT22;10137;49.406;19.484;2023-11-21T14:05:49;7.50;99.90
19952;DHT22;10137;49.406;19.484;2023-11-21T14:08:23;7.50;99.90
19952;DHT22;10137;49.406;19.484;2023-11-21T14:10:57;7.40;99.90
19952;DHT22;10137;49.406;19.484;2023-11-21T14:13:31;7.40;99.90
19952;DHT22;10137;49.406;19.484;2023-11-21T14:16:00;7.30;99.90
19952;DHT22;10137;49.406;19.484;2023-11-21T14:18:29;7.40;99.90
19952;DHT22;10137;49.406;19.484;2023-11-21T14:21:02;7.40;99.90
19952;DHT22;10137;49.406;19.484;2023-11-21T14:23:32;7.40;99.90
19952;DHT22;10137;49.406;19.484;2023-11-21T14:26:02;7.40;99.90
19952;DHT22;10137;49.406;19.484;2023-11-21T14:28:34;7.50;99.90
19952;DHT22;10137;49.406;19.484;2023-11-21T14:31:03;7.50;99.90
19952;DHT22;10137;49.406;19.484;2023-11-21T14:33:31;7.40;99.90
19952;DHT22;10137;49.406;19.484;2023-11-21T14:36:00;7.40;99.90
19952;DHT22;10137;49.406;19.484;2023-11-21T14:38:28;7.40;99.90
19952;DHT22;10137;49.406;19.484;2023-11-21T14:40:56;7.30;99.90
19952;DHT22;10137;49.406;19.484;2023-11-21T14:43:39;7.20;99.90
19952;DHT22;10137;49.406;19.484;2023-11-21T14:46:11;7.10;99.90
19952;DHT22;10137;49.406;19.484;2023-11-21T14:48:44;7.00;99.90
19952;DHT22;10137;49.406;19.484;2023-11-21T14:51:21;7.00;99.90
19952;DHT22;10137;49.406;19.484;2023-11-21T14:53:56;6.90;99.90
19952;DHT22;10137;49.406;19.484;2023-11-21T14:56:27;6.90;99.90
19952;DHT22;10137;49.406;19.484;2023-11-21T14:58:58;6.90;99.90
19952;DHT22;10137;49.406;19.484;2023-11-21T15:01:32;6.80;99.90
19952;DHT22;10137;49.406;19.484;2023-11-21T15:04:12;6.80;99.90
19952;DHT22;10137;49.406;19.484;2023-11-21T15:06:50;6.90;99.90
19952;DHT22;10137;49.406;19.484;2023-11-21T15:09:19;6.80;99.90
19952;DHT22;10137;49.406;19.484;2023-11-21T15:12:07;6.80;99.90
19952;DHT22;10137;49.406;19.484;2023-11-21T15:14:47;6.80;99.90
19952;DHT22;10137;49.406;19.484;2023-11-21T15:17:20;6.70;99.90
19952;DHT22;10137;49.406;19.484;2023-11-21T15:19:53;6.60;99.90
19952;DHT22;10137;49.406;19.484;2023-11-21T15:22:21;6.60;99.90
19952;DHT22;10137;49.406;19.484;2023-11-21T15:24:50;6.50;99.90
19952;DHT22;10137;49.406;19.484;2023-11-21T15:27:21;6.50;99.90
19952;DHT22;10137;49.406;19.484;2023-11-21T15:29:53;6.50;99.90
19952;DHT22;10137;49.406;19.484;2023-11-21T15:32:20;6.40;99.90
19952;DHT22;10137;49.406;19.484;2023-11-21T15:34:47;6.40;99.90
19952;DHT22;10137;49.406;19.484;2023-11-21T15:37:17;6.40;99.90
19952;DHT22;10137;49.406;19.484;2023-11-21T15:39:45;6.40;99.90
19952;DHT22;10137;49.406;19.484;2023-11-21T15:42:21;6.30;99.90
19952;DHT22;10137;49.406;19.484;2023-11-21T15:44:50;6.40;99.90
19952;DHT22;10137;49.406;19.484;2023-11-21T15:47:18;6.40;99.90
19952;DHT22;10137;49.406;19.484;2023-11-21T15:49:49;6.30;99.90